createdAt,value
2019-03-24T00:00:29.652Z,3.50
2019-03-24T00:02:58.046Z,3.40
2019-03-24T00:05:26.464Z,3.34
2019-03-24T00:07:56.809Z,3.29
2019-03-24T00:10:25.004Z,3.25
2019-03-24T00:12:53.405Z,3.16
2019-03-24T00:15:26.240Z,3.04
2019-03-24T00:17:51.935Z,2.94
2019-03-24T00:20:20.333Z,2.91
2019-03-24T00:22:48.893Z,2.85
2019-03-24T00:25:17.298Z,2.82
2019-03-24T00:27:45.698Z,2.81
2019-03-24T00:30:14.454Z,2.87
2019-03-24T00:32:42.853Z,2.91
2019-03-24T00:35:11.341Z,2.91
2019-03-24T00:37:40.150Z,2.82
2019-03-24T00:40:09.485Z,2.80
2019-03-24T00:42:37.958Z,2.94
2019-03-24T00:45:08.402Z,3.23
2019-03-24T00:47:36.824Z,3.29
2019-03-24T00:50:08.459Z,3.23
2019-03-24T00:52:36.867Z,3.16
2019-03-24T00:55:07.223Z,3.11
2019-03-24T00:57:37.458Z,3.02
2019-03-24T01:00:10.698Z,2.96
2019-03-24T01:02:39.119Z,2.89
2019-03-24T01:05:08.060Z,2.84
2019-03-24T01:07:36.556Z,2.77
2019-03-24T01:10:07.064Z,2.71
2019-03-24T01:12:35.473Z,2.66
2019-03-24T01:15:04.705Z,2.62
2019-03-24T01:17:33.950Z,2.54
2019-03-24T01:20:02.349Z,2.52
2019-03-24T01:22:30.768Z,2.54
2019-03-24T01:24:59.171Z,2.51
2019-03-24T01:27:27.572Z,2.45
2019-03-24T01:29:57.354Z,2.42
2019-03-24T01:32:25.747Z,2.38
2019-03-24T01:34:54.150Z,2.38
2019-03-24T01:37:22.576Z,2.33
2019-03-24T01:39:50.974Z,2.24
2019-03-24T01:42:19.402Z,2.17
2019-03-24T01:44:48.475Z,2.13
2019-03-24T01:47:16.883Z,2.09
2019-03-24T01:49:45.302Z,2.04
2019-03-24T01:52:13.697Z,1.97
2019-03-24T01:54:42.121Z,1.90
2019-03-24T01:57:10.536Z,1.84
2019-03-24T01:59:38.924Z,1.82
2019-03-24T02:02:07.341Z,1.76
2019-03-24T02:04:35.832Z,1.70
2019-03-24T02:07:04.298Z,1.69
2019-03-24T02:09:32.720Z,1.73
2019-03-24T02:12:01.125Z,1.76
2019-03-24T02:14:29.957Z,1.77
2019-03-24T02:16:59.335Z,1.73
2019-03-24T02:19:27.825Z,1.69
2019-03-24T02:21:56.246Z,1.70
2019-03-24T02:24:25.361Z,1.72
2019-03-24T02:26:53.916Z,1.74
2019-03-24T02:29:22.313Z,1.76
2019-03-24T02:31:50.726Z,1.75
2019-03-24T02:34:19.159Z,1.76
2019-03-24T02:36:47.558Z,1.74
2019-03-24T02:39:16.117Z,1.70
2019-03-24T02:41:44.515Z,1.66
2019-03-24T02:44:12.915Z,1.60
2019-03-24T02:46:41.340Z,1.54
2019-03-24T02:49:09.736Z,1.55
2019-03-24T02:51:38.152Z,1.50
2019-03-24T02:54:06.545Z,1.51
2019-03-24T02:56:34.948Z,1.50
2019-03-24T02:59:03.360Z,1.47
2019-03-24T03:01:31.754Z,1.45
2019-03-24T03:04:00.177Z,1.41
2019-03-24T03:06:28.598Z,1.39
2019-03-24T03:08:57.032Z,1.40
2019-03-24T03:11:25.724Z,1.40
2019-03-24T03:13:54.126Z,1.38
2019-03-24T03:16:22.545Z,1.37
2019-03-24T03:18:50.941Z,1.35
2019-03-24T03:21:19.626Z,1.32
2019-03-24T03:23:48.315Z,1.27
2019-03-24T03:26:16.733Z,1.24
2019-03-24T03:28:45.137Z,1.20
2019-03-24T03:31:13.542Z,1.17
2019-03-24T03:33:41.968Z,1.15
2019-03-24T03:36:10.376Z,1.14
2019-03-24T03:38:38.798Z,1.15
2019-03-24T03:41:07.357Z,1.17
2019-03-24T03:43:35.751Z,1.24
2019-03-24T03:46:04.555Z,1.44
2019-03-24T03:48:32.959Z,1.49
2019-03-24T03:51:01.357Z,1.50
2019-03-24T03:53:29.810Z,1.49
2019-03-24T03:55:58.242Z,1.50
2019-03-24T03:58:26.674Z,1.51
2019-03-24T04:00:55.087Z,1.73
2019-03-24T04:03:23.493Z,1.77
2019-03-24T04:05:52.296Z,1.87
2019-03-24T04:08:20.694Z,1.88
2019-03-24T04:10:49.363Z,1.93
2019-03-24T04:13:17.770Z,1.90
2019-03-24T04:15:46.172Z,1.92
2019-03-24T04:18:14.711Z,1.91
2019-03-24T04:20:43.113Z,1.95
2019-03-24T04:23:11.522Z,1.96
2019-03-24T04:25:39.944Z,1.95
2019-03-24T04:28:08.620Z,1.91
2019-03-24T04:30:37.038Z,1.89
2019-03-24T04:33:05.453Z,1.88
2019-03-24T04:35:34.146Z,1.88
2019-03-24T04:38:02.572Z,1.86
2019-03-24T04:40:30.974Z,1.82
2019-03-24T04:42:59.373Z,1.84
2019-03-24T04:45:27.794Z,1.84
2019-03-24T04:47:56.190Z,1.86
2019-03-24T04:50:24.613Z,1.88
2019-03-24T04:52:53.016Z,1.94
2019-03-24T04:55:21.431Z,1.96
2019-03-24T04:57:49.843Z,1.98
2019-03-24T05:00:21.286Z,2.02
2019-03-24T05:02:49.714Z,2.05
2019-03-24T05:05:18.105Z,2.09
2019-03-24T05:07:46.676Z,2.13
2019-03-24T05:10:26.352Z,2.15
2019-03-24T05:12:54.749Z,2.18
2019-03-24T05:15:23.415Z,2.19
2019-03-24T05:17:51.845Z,2.17
2019-03-24T05:20:20.513Z,2.21
2019-03-24T05:22:48.927Z,2.24
2019-03-24T05:25:17.394Z,2.31
2019-03-24T05:27:45.794Z,2.36
2019-03-24T05:30:14.212Z,2.40
2019-03-24T05:32:42.919Z,2.42
2019-03-24T05:35:12.612Z,2.43
2019-03-24T05:37:41.009Z,2.45
2019-03-24T05:40:09.585Z,2.51
2019-03-24T05:42:37.998Z,2.65
2019-03-24T05:45:07.529Z,2.88
2019-03-24T05:47:37.444Z,3.00
2019-03-24T05:50:08.245Z,3.02
2019-03-24T05:52:36.640Z,3.13
2019-03-24T05:55:06.620Z,3.21
2019-03-24T05:57:34.997Z,3.32
2019-03-24T06:00:05.546Z,3.42
2019-03-24T06:02:33.946Z,3.48
2019-03-24T06:05:02.361Z,3.62
2019-03-24T06:07:31.760Z,3.74
2019-03-24T06:10:00.366Z,3.78
2019-03-24T06:12:28.806Z,3.92
2019-03-24T06:14:57.197Z,4.04
2019-03-24T06:17:25.619Z,4.12
2019-03-24T06:19:54.012Z,4.15
2019-03-24T06:22:22.418Z,4.17
2019-03-24T06:24:50.834Z,4.18
2019-03-24T06:27:19.238Z,4.16
2019-03-24T06:29:47.676Z,4.18
2019-03-24T06:32:16.078Z,4.35
2019-03-24T06:34:44.759Z,4.63
2019-03-24T06:37:13.187Z,4.83
2019-03-24T06:39:41.587Z,4.94
2019-03-24T06:42:10.009Z,4.92
2019-03-24T06:44:38.401Z,4.93
2019-03-24T06:47:06.802Z,5.01
2019-03-24T06:49:35.217Z,5.06
2019-03-24T06:52:03.681Z,5.08
2019-03-24T06:54:32.101Z,5.08
2019-03-24T06:57:00.771Z,5.06
2019-03-24T06:59:29.179Z,5.07
2019-03-24T07:01:57.604Z,5.07
2019-03-24T07:04:25.995Z,5.07
2019-03-24T07:06:54.461Z,5.05
2019-03-24T07:09:22.848Z,5.07
2019-03-24T07:11:51.262Z,5.10
2019-03-24T07:14:19.696Z,5.14
2019-03-24T07:16:48.098Z,5.19
2019-03-24T07:19:16.509Z,5.21
2019-03-24T07:21:44.926Z,5.23
2019-03-24T07:24:13.315Z,5.25
2019-03-24T07:26:41.737Z,5.28
2019-03-24T07:29:10.141Z,5.29
2019-03-24T07:31:38.539Z,5.33
2019-03-24T07:34:06.954Z,5.36
2019-03-24T07:36:35.350Z,5.39
2019-03-24T07:39:05.027Z,5.44
2019-03-24T07:41:33.418Z,5.51
2019-03-24T07:44:01.818Z,5.62
2019-03-24T07:46:30.246Z,5.83
2019-03-24T07:48:58.645Z,5.91
2019-03-24T07:51:27.049Z,5.95
2019-03-24T07:53:55.466Z,6.00
2019-03-24T07:56:23.861Z,6.09
2019-03-24T07:58:52.268Z,6.17
2019-03-24T08:01:20.701Z,6.30
2019-03-24T08:03:49.101Z,6.48
2019-03-24T08:06:17.513Z,6.62
2019-03-24T08:08:45.931Z,6.86
2019-03-24T08:11:14.345Z,7.24
2019-03-24T08:13:53.276Z,7.48
2019-03-24T08:16:12.864Z,7.56
2019-03-24T08:18:41.280Z,7.56
2019-03-24T08:21:09.749Z,7.58
2019-03-24T08:23:38.242Z,7.61
2019-03-24T08:26:06.640Z,7.70
2019-03-24T08:28:35.036Z,8.03
2019-03-24T08:31:03.462Z,8.19
2019-03-24T08:33:31.858Z,8.21
2019-03-24T08:36:00.282Z,8.29
2019-03-24T08:38:28.685Z,8.64
2019-03-24T08:40:57.114Z,8.75
2019-03-24T08:43:25.508Z,8.81
2019-03-24T08:45:53.905Z,8.90
2019-03-24T08:48:22.304Z,8.86
2019-03-24T08:50:50.727Z,9.06
2019-03-24T08:53:19.125Z,9.22
2019-03-24T08:55:47.560Z,9.43
2019-03-24T08:58:15.963Z,9.50
2019-03-24T09:00:45.068Z,9.54
2019-03-24T09:03:13.486Z,9.61
2019-03-24T09:05:41.883Z,9.83
2019-03-24T09:08:10.283Z,9.95
2019-03-24T09:10:38.705Z,10.14
2019-03-24T09:13:07.114Z,10.29
2019-03-24T09:15:35.509Z,10.46
2019-03-24T09:18:03.938Z,10.79
2019-03-24T09:20:41.207Z,11.10
2019-03-24T09:23:02.496Z,11.47
2019-03-24T09:25:30.970Z,11.53
2019-03-24T09:27:59.477Z,11.81
2019-03-24T09:30:32.391Z,12.11
2019-03-24T09:33:00.793Z,12.46
2019-03-24T09:35:29.455Z,12.37
2019-03-24T09:37:58.103Z,12.41
2019-03-24T09:40:35.005Z,12.34
2019-03-24T09:43:04.640Z,12.15
2019-03-24T09:45:33.480Z,11.77
2019-03-24T09:48:02.073Z,11.57
2019-03-24T09:50:30.549Z,11.64
2019-03-24T09:52:59.055Z,11.54
2019-03-24T09:55:27.453Z,11.47
2019-03-24T09:57:55.857Z,11.48
2019-03-24T10:00:24.256Z,11.30
2019-03-24T10:02:52.706Z,11.35
2019-03-24T10:05:21.170Z,11.46
2019-03-24T10:07:49.581Z,11.48
2019-03-24T10:10:18.015Z,11.69
2019-03-24T10:12:46.425Z,11.78
2019-03-24T10:15:15.088Z,11.81
2019-03-24T10:17:43.959Z,11.70
2019-03-24T10:20:12.619Z,11.95
2019-03-24T10:22:41.359Z,12.00
2019-03-24T10:25:09.780Z,12.20
2019-03-24T10:27:38.192Z,12.53
2019-03-24T10:30:08.843Z,12.73
2019-03-24T10:32:37.285Z,12.91
2019-03-24T10:35:07.236Z,13.03
2019-03-24T10:37:35.667Z,13.15
2019-03-24T10:40:05.305Z,13.46
2019-03-24T10:42:33.708Z,13.67
2019-03-24T10:45:02.200Z,13.60
2019-03-24T10:47:30.883Z,13.78
2019-03-24T10:49:59.667Z,13.83
2019-03-24T10:52:28.075Z,13.82
2019-03-24T10:54:56.503Z,13.91
2019-03-24T10:57:24.908Z,14.00
2019-03-24T10:59:53.337Z,14.04
2019-03-24T11:02:21.919Z,13.95
2019-03-24T11:04:50.318Z,14.27
2019-03-24T11:07:18.745Z,14.68
2019-03-24T11:09:47.144Z,14.76
2019-03-24T11:12:15.563Z,14.77
2019-03-24T11:14:43.981Z,14.63
2019-03-24T11:17:12.395Z,14.60
2019-03-24T11:19:40.793Z,14.63
2019-03-24T11:22:09.225Z,14.70
2019-03-24T11:24:37.629Z,14.77
2019-03-24T11:27:06.037Z,14.81
2019-03-24T11:29:34.463Z,14.92
2019-03-24T11:32:02.879Z,15.08
2019-03-24T11:34:31.277Z,15.30
2019-03-24T11:36:59.701Z,15.42
2019-03-24T11:41:49.372Z,15.44
2019-03-24T11:44:17.786Z,15.39
2019-03-24T11:46:46.198Z,15.21
2019-03-24T11:49:19.488Z,15.01
2019-03-24T11:51:47.925Z,14.91
2019-03-24T11:54:16.674Z,14.73
2019-03-24T11:56:45.088Z,14.60
2019-03-24T11:59:13.481Z,14.54
2019-03-24T12:01:41.909Z,14.43
2019-03-24T12:04:10.312Z,14.33
2019-03-24T12:06:38.740Z,14.07
2019-03-24T12:09:07.553Z,13.87
2019-03-24T12:11:35.955Z,13.79
2019-03-24T12:14:04.918Z,13.58
2019-03-24T12:16:34.119Z,13.46
2019-03-24T12:19:02.516Z,13.36
2019-03-24T12:21:30.948Z,13.30
2019-03-24T12:23:59.400Z,13.27
2019-03-24T12:26:27.756Z,13.17
2019-03-24T12:28:56.196Z,13.17
2019-03-24T12:31:24.672Z,13.22
2019-03-24T12:33:53.075Z,13.20
2019-03-24T12:36:21.501Z,13.17
2019-03-24T12:38:49.911Z,13.20
2019-03-24T12:41:18.312Z,13.25
2019-03-24T12:43:46.768Z,13.35
2019-03-24T12:46:15.154Z,13.45
2019-03-24T12:48:43.558Z,13.54
2019-03-24T12:51:12.001Z,13.55
2019-03-24T12:53:40.399Z,13.65
2019-03-24T12:56:08.803Z,13.73
2019-03-24T12:58:37.244Z,13.86
2019-03-24T13:01:05.725Z,13.86
2019-03-24T13:03:35.874Z,13.92
2019-03-24T13:06:04.863Z,14.00
2019-03-24T13:08:33.261Z,14.20
2019-03-24T13:11:01.660Z,14.22
2019-03-24T13:13:30.090Z,14.09
2019-03-24T13:15:58.493Z,13.95
2019-03-24T13:18:26.899Z,13.87
2019-03-24T13:20:55.509Z,13.88
2019-03-24T13:23:23.911Z,13.85
2019-03-24T13:25:52.381Z,13.79
2019-03-24T13:28:20.829Z,13.77
2019-03-24T13:30:49.209Z,13.71
2019-03-24T13:33:17.696Z,13.70
2019-03-24T13:35:47.282Z,13.72
2019-03-24T13:38:15.687Z,13.76
2019-03-24T13:40:44.088Z,13.78
2019-03-24T13:43:12.511Z,13.84
2019-03-24T13:45:40.906Z,13.80
2019-03-24T13:48:09.348Z,13.60
2019-03-24T13:50:37.750Z,13.60
2019-03-24T13:53:06.154Z,13.58
2019-03-24T13:55:34.579Z,13.47
2019-03-24T13:58:04.065Z,13.48
2019-03-24T14:00:32.468Z,13.43
2019-03-24T14:03:01.180Z,13.38
2019-03-24T14:05:29.590Z,13.36
2019-03-24T14:07:57.997Z,13.31
2019-03-24T14:10:26.415Z,13.28
2019-03-24T14:12:54.819Z,13.20
2019-03-24T14:15:23.220Z,13.11
2019-03-24T14:17:51.651Z,13.11
2019-03-24T14:20:20.058Z,13.04
2019-03-24T14:22:48.465Z,12.98
2019-03-24T14:25:16.888Z,13.02
2019-03-24T14:27:45.291Z,12.97
2019-03-24T14:30:14.226Z,12.96
2019-03-24T14:32:42.663Z,12.80
2019-03-24T14:35:11.585Z,12.69
2019-03-24T14:37:39.994Z,12.60
2019-03-24T14:40:08.865Z,12.52
2019-03-24T14:42:37.302Z,12.45
2019-03-24T14:45:09.103Z,12.42
2019-03-24T14:47:38.089Z,12.43
2019-03-24T14:50:12.181Z,12.37
2019-03-24T14:52:40.611Z,12.36
2019-03-24T14:55:09.198Z,12.31
2019-03-24T14:57:37.604Z,12.30
2019-03-24T15:00:07.923Z,12.33
2019-03-24T15:02:36.357Z,12.39
2019-03-24T15:05:06.989Z,12.43
2019-03-24T15:07:35.395Z,12.44
2019-03-24T15:10:07.866Z,12.45
2019-03-24T15:12:36.283Z,12.48
2019-03-24T15:15:07.454Z,12.54
2019-03-24T15:17:36.134Z,12.73
2019-03-24T15:20:06.487Z,12.97
2019-03-24T15:22:34.906Z,12.95
2019-03-24T15:25:03.376Z,13.04
2019-03-24T15:27:31.803Z,13.05
2019-03-24T15:30:00.459Z,13.07
2019-03-24T15:32:28.908Z,13.02
2019-03-24T15:34:57.317Z,12.96
2019-03-24T15:37:25.755Z,12.85
2019-03-24T15:39:54.151Z,12.82
2019-03-24T15:42:22.560Z,12.75
2019-03-24T15:44:50.986Z,12.74
2019-03-24T15:47:19.391Z,12.72
2019-03-24T15:49:48.122Z,12.71
2019-03-24T15:52:16.553Z,12.74
2019-03-24T15:54:44.952Z,12.71
2019-03-24T15:57:13.354Z,12.69
2019-03-24T15:59:42.454Z,12.63
2019-03-24T16:02:10.851Z,12.57
2019-03-24T16:04:39.287Z,12.55
2019-03-24T16:07:07.692Z,12.54
2019-03-24T16:09:36.103Z,12.54
2019-03-24T16:12:04.531Z,12.69
2019-03-24T16:14:32.936Z,12.95
2019-03-24T16:17:01.340Z,13.37
2019-03-24T16:19:29.773Z,13.89
2019-03-24T16:21:58.470Z,14.31
2019-03-24T16:24:26.889Z,14.21
2019-03-24T16:26:55.314Z,13.76
2019-03-24T16:29:23.720Z,13.34
2019-03-24T16:31:52.119Z,12.95
2019-03-24T16:34:20.552Z,12.80
2019-03-24T16:36:48.949Z,12.65
2019-03-24T16:39:17.353Z,12.54
2019-03-24T16:41:45.773Z,12.42
2019-03-24T16:44:14.172Z,12.35
2019-03-24T16:46:44.261Z,12.23
2019-03-24T16:49:12.670Z,12.07
2019-03-24T16:51:41.713Z,11.96
2019-03-24T16:54:10.174Z,11.90
2019-03-24T16:56:38.567Z,11.81
2019-03-24T16:59:06.973Z,11.74
2019-03-24T17:01:35.388Z,11.66
2019-03-24T17:04:03.797Z,11.53
2019-03-24T17:06:32.196Z,11.49
2019-03-24T17:09:01.071Z,11.37
2019-03-24T17:11:29.467Z,11.35
2019-03-24T17:13:57.868Z,11.26
2019-03-24T17:16:26.298Z,11.22
2019-03-24T17:18:54.706Z,11.21
2019-03-24T17:21:23.103Z,11.11
2019-03-24T17:23:51.585Z,11.03
2019-03-24T17:26:19.997Z,10.97
2019-03-24T17:28:48.392Z,10.94
2019-03-24T17:31:16.811Z,10.85
2019-03-24T17:33:45.214Z,10.84
2019-03-24T17:36:13.661Z,10.83
2019-03-24T17:38:42.068Z,10.79
2019-03-24T17:41:10.466Z,10.75
2019-03-24T17:43:38.866Z,10.70
2019-03-24T17:46:07.567Z,10.61
2019-03-24T17:48:35.970Z,10.51
2019-03-24T17:51:04.368Z,10.45
2019-03-24T17:53:32.784Z,10.36
2019-03-24T17:56:01.218Z,10.34
2019-03-24T17:58:29.620Z,10.29
2019-03-24T18:00:58.061Z,10.21
2019-03-24T18:03:26.460Z,10.09
2019-03-24T18:05:54.887Z,9.97
2019-03-24T18:08:23.294Z,9.87
2019-03-24T18:10:52.024Z,9.74
2019-03-24T18:13:20.440Z,9.64
2019-03-24T18:15:48.832Z,9.49
2019-03-24T18:18:17.224Z,9.33
2019-03-24T18:20:45.958Z,9.20
2019-03-24T18:23:14.351Z,9.10
2019-03-24T18:25:42.747Z,9.00
2019-03-24T18:28:11.172Z,8.87
2019-03-24T18:30:39.571Z,8.71
2019-03-24T18:33:07.967Z,8.67
2019-03-24T18:35:36.392Z,8.74
2019-03-24T18:38:05.126Z,8.89
2019-03-24T18:40:33.524Z,8.94
2019-03-24T18:43:01.931Z,8.96
2019-03-24T18:45:30.441Z,8.73
2019-03-24T18:47:59.130Z,8.44
2019-03-24T18:50:27.543Z,8.17
2019-03-24T18:52:55.944Z,8.08
2019-03-24T18:55:24.361Z,8.05
2019-03-24T18:57:52.749Z,8.07
2019-03-24T19:00:21.685Z,7.98
2019-03-24T19:02:50.100Z,7.88
2019-03-24T19:05:19.068Z,7.73
2019-03-24T19:07:48.761Z,7.61
2019-03-24T19:10:17.322Z,7.44
2019-03-24T19:12:45.721Z,7.28
2019-03-24T19:15:16.219Z,7.11
2019-03-24T19:17:44.772Z,6.95
2019-03-24T19:20:13.701Z,6.87
2019-03-24T19:22:42.098Z,6.87
2019-03-24T19:25:10.845Z,6.89
2019-03-24T19:27:39.240Z,6.94
2019-03-24T19:30:10.712Z,6.93
2019-03-24T19:32:39.104Z,6.98
2019-03-24T19:35:08.034Z,6.97
2019-03-24T19:37:36.992Z,6.88
2019-03-24T19:40:08.445Z,6.74
2019-03-24T19:42:36.837Z,6.64
2019-03-24T19:45:06.701Z,6.56
2019-03-24T19:47:35.099Z,6.52
2019-03-24T19:50:04.638Z,6.72
2019-03-24T19:52:40.513Z,6.75
2019-03-24T19:55:03.448Z,6.71
2019-03-24T19:57:31.834Z,6.64
2019-03-24T20:00:00.364Z,6.60
2019-03-24T20:02:28.816Z,6.45
2019-03-24T20:04:57.232Z,6.27
2019-03-24T20:07:25.627Z,6.17
2019-03-24T20:09:54.019Z,6.15
2019-03-24T20:12:22.432Z,6.17
2019-03-24T20:14:51.103Z,6.10
2019-03-24T20:17:19.515Z,5.94
2019-03-24T20:19:47.909Z,5.77
2019-03-24T20:22:16.300Z,5.75
2019-03-24T20:24:44.720Z,5.74
2019-03-24T20:27:13.110Z,5.62
2019-03-24T20:29:41.524Z,5.52
2019-03-24T20:32:09.918Z,5.50
2019-03-24T20:34:38.322Z,5.37
2019-03-24T20:37:06.732Z,5.24
2019-03-24T20:39:35.395Z,5.06
2019-03-24T20:42:03.784Z,4.89
2019-03-24T20:44:32.199Z,4.79
2019-03-24T20:47:00.589Z,4.73
2019-03-24T20:49:28.982Z,4.75
2019-03-24T20:51:57.400Z,4.83
2019-03-24T20:54:25.824Z,4.75
2019-03-24T20:56:54.206Z,4.56
2019-03-24T20:59:22.623Z,4.34
2019-03-24T21:01:51.012Z,4.20
2019-03-24T21:04:20.352Z,4.09
2019-03-24T21:06:48.901Z,4.07
2019-03-24T21:09:17.297Z,4.05
2019-03-24T21:11:45.691Z,4.15
2019-03-24T21:14:14.108Z,4.25
2019-03-24T21:16:42.497Z,4.14
2019-03-24T21:19:10.899Z,4.01
2019-03-24T21:21:39.315Z,3.92
2019-03-24T21:24:07.711Z,3.82
2019-03-24T21:26:36.097Z,3.71
2019-03-24T21:29:04.517Z,3.54
2019-03-24T21:31:32.911Z,3.47
2019-03-24T21:34:01.312Z,3.32
2019-03-24T21:36:29.719Z,3.26
2019-03-24T21:38:58.110Z,3.22
2019-03-24T21:41:26.598Z,3.21
2019-03-24T21:43:54.992Z,3.14
2019-03-24T21:46:23.383Z,3.05
2019-03-24T21:48:51.804Z,2.98
2019-03-24T21:51:20.192Z,2.93
2019-03-24T21:53:48.586Z,2.85
2019-03-24T21:56:17.004Z,3.04
2019-03-24T21:58:45.399Z,3.23
2019-03-24T22:01:13.799Z,3.20
2019-03-24T22:03:42.229Z,3.04
2019-03-24T22:06:10.626Z,2.91
2019-03-24T22:08:39.021Z,2.80
2019-03-24T22:11:07.456Z,2.81
2019-03-24T22:13:35.851Z,2.73
2019-03-24T22:16:04.249Z,2.63
2019-03-24T22:18:32.979Z,2.58
2019-03-24T22:21:01.379Z,2.64
2019-03-24T22:23:29.774Z,2.63
2019-03-24T22:25:58.190Z,2.61
2019-03-24T22:28:26.581Z,2.51
2019-03-24T22:30:54.977Z,2.39
2019-03-24T22:33:23.402Z,2.20
2019-03-24T22:35:52.144Z,2.08
2019-03-24T22:38:20.542Z,2.04
2019-03-24T22:40:48.952Z,2.07
2019-03-24T22:43:17.342Z,2.12
2019-03-24T22:45:45.736Z,2.27
2019-03-24T22:48:14.163Z,2.31
2019-03-24T22:50:42.549Z,2.27
2019-03-24T22:53:10.963Z,2.17
2019-03-24T22:55:39.676Z,2.07
2019-03-24T22:58:08.097Z,1.94
2019-03-24T23:00:52.879Z,1.84
2019-03-24T23:03:21.547Z,1.70
2019-03-24T23:05:49.960Z,1.87
2019-03-24T23:08:18.429Z,1.83
2019-03-24T23:10:46.827Z,1.79
2019-03-24T23:13:15.242Z,1.80
2019-03-24T23:15:43.642Z,1.70
2019-03-24T23:18:12.032Z,1.66
2019-03-24T23:20:40.694Z,1.60
2019-03-24T23:23:09.083Z,1.51
2019-03-24T23:25:37.486Z,1.39
2019-03-24T23:28:06.381Z,1.28
2019-03-24T23:30:34.992Z,1.22
2019-03-24T23:33:03.883Z,1.18
2019-03-24T23:35:32.302Z,1.24
2019-03-24T23:38:00.767Z,1.36
2019-03-24T23:40:29.531Z,1.49
2019-03-24T23:42:57.943Z,1.53
2019-03-24T23:45:26.590Z,1.56
2019-03-24T23:47:54.980Z,1.50
2019-03-24T23:50:23.392Z,1.41
2019-03-24T23:52:51.847Z,1.32
2019-03-24T23:55:20.270Z,1.24
2019-03-24T23:57:48.656Z,1.16
